createdAt,value
2022-10-17T22:04:57.448Z,17.80
2022-10-17T22:07:47.788Z,17.30
2022-10-17T22:10:16.336Z,17.30
2022-10-17T22:12:44.121Z,17.30
2022-10-17T22:15:11.532Z,17.30
2022-10-17T22:17:40.369Z,17.20
2022-10-17T22:20:12.970Z,17.20
2022-10-17T22:22:40.306Z,17.20
2022-10-17T22:25:08.038Z,17.20
2022-10-17T22:27:35.427Z,17.20
2022-10-17T22:30:05.547Z,17.20
2022-10-17T22:32:39.024Z,17.10
2022-10-17T22:35:06.965Z,17.10
2022-10-17T22:37:34.656Z,17.10
2022-10-17T22:40:04.844Z,17.00
2022-10-17T22:42:35.052Z,17.00
2022-10-17T22:45:02.977Z,17.00
2022-10-17T22:47:34.934Z,17.00
2022-10-17T22:50:17.168Z,17.00
2022-10-17T22:52:46.837Z,16.90
2022-10-17T22:55:14.502Z,16.90
2022-10-17T22:58:04.054Z,16.90
2022-10-17T23:00:57.042Z,16.90
2022-10-17T23:03:26.415Z,16.80
2022-10-17T23:05:54.612Z,16.70
2022-10-17T23:08:24.100Z,16.70
2022-10-17T23:11:06.553Z,16.70
2022-10-17T23:13:43.386Z,16.70
2022-10-17T23:16:11.095Z,16.70
2022-10-17T23:18:45.981Z,16.70
2022-10-17T23:21:14.663Z,16.60
2022-10-17T23:23:42.035Z,16.60
2022-10-17T23:26:14.369Z,16.50
2022-10-17T23:28:44.905Z,16.60
2022-10-17T23:31:18.865Z,16.60
2022-10-17T23:33:47.724Z,16.60
2022-10-17T23:36:23.329Z,16.60
2022-10-17T23:38:58.447Z,16.60
2022-10-17T23:41:28.482Z,16.50
2022-10-17T23:44:23.666Z,16.50
2022-10-17T23:46:51.110Z,16.40
2022-10-17T23:49:18.512Z,16.40
2022-10-17T23:51:45.990Z,16.50
2022-10-17T23:54:14.330Z,16.50
